Tiempo atmosférico en la estación meteorológica de Don Benito, Badajoz (273 m.)

Fecha
DESCASC
Temp. máxima en grados centígrados (hora)
DESCASC
Temp. mínima en grados centígrados (hora)
DESCASC
Temp. media en grados centígrados
DESCASC
Racha de viento máxima en m/sg (hora)
DESCASC
Velocidad máxima media en intervalos de 10 minutos(hora)
DESCASC
Precipitaciones diarias en mm
DESCASC
Precipitaciones de 00:00 a 06:00 en mm
DESCASC
Precipitaciones de 06:00 a 12:00 en mm
DESCASC
Precipitaciones de 12:00 a 18:00 en mm
DESCASC
Precipitaciones de 18:00 a 24:00 en mm
DESCASC
23-11-2017 23.7 (15:10) 11.3 (05:50) 17.5 8.33 (16:00) 4.72 (16:00) 0 0 0 0 0
22-11-2017 21.9 (16:20) 3.2 (07:10) 12.5 5.28 (23:40) 3.06 (21:10) 0 0 0 0 0
21-11-2017 22.4 (15:40) 3.7 (07:50) 13 4.17 (21:10) 2.5 (20:40) 0 0 0 0 0
20-11-2017 22.9 (16:20) 3.2 (07:40) 13 3.61 (11:00) 2.5 (21:50) 0 0 0 0 0
19-11-2017 21.5 (15:30) 4 (00:00) 12.8 4.17 (20:20) 1.39 (12:40) 0 0 0 0 0
18-11-2017 21.6 (16:30) 3.6 (00:00) 12.6 3.33 (14:30) 1.94 (23:20) 0 0 0 0 0
17-11-2017 21.3 (15:40) 3 (00:00) 12.1 3.61 (23:30) 2.22 (23:30) 0 0 0 0 0
16-11-2017 19.9 (15:20) 3.1 (00:00) 11.5 3.06 (15:50) 1.67 (23:50) 0 0 0 0 0
15-11-2017 18.9 (16:10) 2.4 (00:00) 10.6 4.44 (15:00) 1.94 (15:10) 0 0 0 0 0
14-11-2017 17.6 (15:50) 3.2 (00:00) 10.4 3.89 (11:10) 1.67 (11:20) 0 0 0 0 0
13-11-2017 20.8 (15:40) 6.2 (00:00) 13.5 6.39 (20:10) 2.78 (19:50) 0 0 0 0 0
12-11-2017 21.5 (16:10) 3.8 (00:00) 12.6 4.72 (12:30) 2.22 (12:00) 0 0 0 0 0
11-11-2017 20 (15:20) 4.7 (00:00) 12.3 3.61 (21:20) 2.22 (21:30) 0 0 0 0 0
10-11-2017 18.9 (16:10) 2.8 (00:00) 10.8 4.72 (16:40) 2.22 (05:10) 0 0 0 0 0
09-11-2017 16.9 (14:50) 5 (00:00) 10.9 8.61 (12:10) 3.61 (12:30) 0 0 0 0 0
08-11-2017 19.5 (15:50) 6.4 (00:00) 13 6.11 (22:30) 2.5 (00:40) 0 0 0 0 0
07-11-2017 20.9 (17:20) 5.3 (00:00) 13.1 5 (15:10) 2.22 (18:30) 0 0 0 0 0
06-11-2017 19 (15:00) 7.5 (00:00) 13.3 6.39 (13:30) 2.5 (13:30) 0 0 0 0 0
05-11-2017 20.1 (16:20) 9.8 (00:00) 15 5.28 (01:50) 2.5 (03:50) 0.2 0 0.2 0 0
04-11-2017 18.7 (12:10) 13.5 (00:00) 16.1 11.39 (15:00) 5 (12:00) 3.6 1.6 0 2 0
03-11-2017 23.8 (14:30) 14 (00:00) 18.9 7.78 (19:20) 3.61 (19:20) 3.6 0.4 0 0 3.2
02-11-2017 22.4 (15:40) 15.8 (04:30) 19.1 10 (14:20) 5.56 (14:00) 0 0 0 0 0
01-11-2017 26.1 (15:30) 11.7 (00:00) 18.9 8.33 (17:20) 3.89 (17:20) 0 0 0 0 0
31-10-2017 26.1 (15:20) 10.3 (00:00) 18.2 5.83 (16:50) 2.5 (14:50) 0 0 0 0 0
30-10-2017 25.9 (15:30) 8.8 (00:00) 17.3 6.39 (13:40) 2.78 (13:10) 0 0 0 0 0
29-10-2017 27.2 (14:50) 10.4 (00:00) 18.8 4.72 (12:50) 1.67 (12:20) 0 0 0 0 0
28-10-2017 28.6 (16:30) 11.1 (00:00) 19.9 5.56 (12:40) 1.94 (13:30) 0 0 0 0 0
27-10-2017 30.6 (16:40) 11.7 (00:00) 21.2 5.28 (17:30) 1.94 (17:30) 0 0 0 0 0
26-10-2017 29.5 (17:00) 11.2 (00:00) 20.3 4.17 (15:50) 1.67 (15:50) 0 0 0 0 0
25-10-2017 30.8 (17:00) 10.9 (00:00) 20.8 6.67 (14:30) 3.06 (14:00) 0 0 0 0 0

Gráficas

Temp. máximas Temp. mínimas Temp. medias Precipitaciones Rachas de viento máximas Velocidades máximas media en intervalos de 10 minutos

Datos horarios

Fecha y hora oficial Temperatura (ºC) Velocidad del viento (km/h) Dirección del viento Racha (km/h) Dirección de racha Precipitación (mm) Presión (hPa) Tendencia (hPa) Humedad (%)
2017-11-23 23:00:00 17.1 5 Sur 18 Sur 0 987.6 0.9 39
2017-11-23 22:00:00 18 8 Sudeste 14 Sudeste 0 987.3 1.2 27
2017-11-23 21:00:00 18.6 8 Sudeste 20 Sur 0 987 1.4 25
2017-11-23 20:00:00 18.9 8 Sur 25 Sur 0 986.7 1.1 27
2017-11-23 19:00:00 19.5 5 Sur 17 Sudeste 0 986.1 0.6 24
2017-11-23 18:00:00 20.5 7 Sudeste 22 Sudoeste 0 985.6 0 22
2017-11-23 17:00:00 22 12 Sur 29 Sur 0 985.6 -0.6 20
2017-11-23 16:00:00 22.7 17 Sudoeste 30 Sur 0 985.5 -1.2 17
2017-11-23 15:00:00 23.5 13 Sur 24 Sur 0 985.6 -1.3 19
2017-11-23 14:00:00 21.8 11 Sur 21 Sur 0 986.2 -0.7 24
2017-11-23 13:00:00 20.9 9 Sudoeste 17 Sudoeste 0 986.7 0.5 27
2017-11-23 12:00:00 20.1 6 Sudeste 14 Sudeste 0 986.9 1.6 28
2017-11-23 11:00:00 16.7 7 Este 15 Este 0 986.9 2.4 37
2017-11-23 10:00:00 14.5 4 Nordeste 8 Nordeste 0 986.2 2.1 42
2017-11-23 09:00:00 12.9 3 Nordeste 9 Este 0 985.3 1.6 44
2017-11-23 08:00:00 13 5 Este 9 Este 0 984.5 1.2 40
2017-11-23 07:00:00 12.6 5 Este 10 Este 0 984.1 0.9 41
2017-11-23 06:00:00 11.8 3 Este 7 Nordeste 0 983.7 0.8 46
2017-11-23 05:00:00 11.6 2 Sudeste 4 Nordeste 0 983.3 0.3 48
2017-11-23 04:00:00 12.2 2 Nordeste 8 Nordeste 0 983.2 0.2 44
2017-11-23 03:00:00 13.4 4 Nordeste 8 Nordeste 0 982.9 0.2 37
2017-11-23 02:00:00 13.2 3 Nordeste 8 Nordeste 0 983 0.4 41
2017-11-23 01:00:00 14.3 2 Sudoeste 13 Sudoeste 0 983 0.4 35
2017-11-23 00:00:00 15.7 9 Sudoeste 19 Sudoeste 0 982.7 0.6 28
2017-11-22 23:00:00 15.7 10 Sur 19 Sur 0 982.6 0.7 29
2017-11-22 22:00:00 15.2 3 Sudeste 18 Sur 0 982.6 1 33
2017-11-22 21:00:00 14.8 8 Sur 16 Sur 0 982.1 0.7 33
2017-11-22 20:00:00 15.8 7 Sur 14 Sur 0 981.9 0.3 28
2017-11-22 19:00:00 16.6 5 Sudeste 12 Sudeste 0 981.6 -0.1 29
2017-11-22 18:00:00 17.9 4 Nordeste 9 Norte 0 981.4 -0.7 31
2017-11-22 17:00:00 20.4 3 Norte 12 Norte 0 981.6 -1.4 27
2017-11-22 16:00:00 21.8 3 Nordeste 11 Nordeste 0 981.7 -2 24
2017-11-22 15:00:00 20.7 4 Nordeste 12 Norte 0 982.1 -2.4 29
2017-11-22 14:00:00 19.5 6 Norte 14 Norte 0 983 -2.1 31
2017-11-22 13:00:00 18.4 5 Norte 17 Este 0 983.7 -1.5 32
2017-11-22 12:00:00 16.1 5 Este 12 Este 0 984.5 -0.5 39
2017-11-22 11:00:00 12.2 3 Nordeste 10 Este 0 985.1 0.5 49
2017-11-22 10:00:00 7.6 2 Norte 8 Nordeste 0 985.2 0.6 61
2017-11-22 09:00:00 4.9 2 Norte 9 Este 0 985 0.3 68
2017-11-22 08:00:00 4.4 3 Este 6 Este 0 984.6 -0.2 66
2017-11-22 07:00:00 3.3 0 Calma 5 Sudeste 0 984.6 -0.4 67
2017-11-22 06:00:00 3.9 2 Sudeste 4 Sudeste 0 984.7 -0.6 67
2017-11-22 05:00:00 4.6 3 Norte 6 Noroeste 0 984.8 -1.2 73
2017-11-22 04:00:00 5.4 0 Calma 5 Norte 0 985 -1.4 66
2017-11-22 03:00:00 5.9 0 Calma 5 Sudeste 0 985.3 -1.2 63
2017-11-22 02:00:00 6.3 3 Sudeste 4 Sudeste 0 986 -0.6 58
2017-11-22 01:00:00 7.1 0 Calma 3 Sudoeste 0 986.4 -0.2 59
2017-11-22 00:00:00 8.8 2 Norte 6 Este 0 986.5 -0.2 53
2017-11-21 23:00:00 9.8 2 Norte 7 Norte 0 986.6 -0.1 49
2017-11-21 22:00:00 12.3 2 Nordeste 15 Sudeste 0 986.6 -0.2 40
2017-11-21 21:00:00 13.4 7 Sudeste 13 Sudeste 0 986.7 0.2 33
2017-11-21 20:00:00 14.3 4 Este 8 Este 0 986.7 0 38
2017-11-21 19:00:00 15.9 3 Nordeste 5 Nordeste 0 986.8 -0.2 35
2017-11-21 18:00:00 18.9 3 Nordeste 9 Nordeste 0 986.5 -1.1 28
2017-11-21 17:00:00 21.7 4 Nordeste 9 Nordeste 0 986.7 -1.7 24
2017-11-21 16:00:00 22.3 4 Nordeste 11 Nordeste 0 987 -2.2 24
2017-11-21 15:00:00 21.7 4 Nordeste 14 Norte 0 987.6 -2.6 27
2017-11-21 14:00:00 20.9 5 Nordeste 12 Nordeste 0 988.4 -2 30
2017-11-21 13:00:00 18.7 4 Nordeste 11 Nordeste 0 989.2 -1.3 36
2017-11-21 12:00:00 16 3 Nordeste 9 Nordeste 0 990.2 -0.1 40
2017-11-21 11:00:00 13.8 4 Nordeste 12 Este 0 990.4 0.5 42
2017-11-21 10:00:00 8.8 0 Calma 5 Nordeste 0 990.5 0.7 62
2017-11-21 09:00:00 5.1 2 Nordeste 9 Este 0 990.3 0.6 74
2017-11-21 08:00:00 4.1 3 Este 6 Sudeste 0 989.9 0.4 78
2017-11-21 07:00:00 4.3 3 Nordeste 5 Nordeste 0 989.8 -0.1 78
2017-11-21 06:00:00 4.3 2 Noroeste 8 Sudoeste 0 989.7 -0.3 71
2017-11-21 05:00:00 5.1 3 Nordeste 4 Nordeste 0 989.5 -0.5 72
2017-11-21 04:00:00 6 0 Calma 6 Este 0 989.9 -0.3 67
2017-11-21 03:00:00 6.6 2 Nordeste 6 Nordeste 0 990 -0.3 65
2017-11-21 02:00:00 7.7 3 Norte 7 Norte 0 990 -0.2 58
2017-11-21 01:00:00 8.3 2 Este 5 Este 0 990.2 0.1 51
2017-11-21 00:00:00 9.1 0 Calma 5 Sur 0 990.3 0.5 52
2017-11-20 23:00:00 10 2 Nordeste 9 Sudeste 0 990.2 0.7 49
2017-11-20 22:00:00 12.9 7 Sudeste 13 Sudeste 0 990.1 1 37
2017-11-20 21:00:00 13.3 6 Sudeste 8 Sudeste 0 989.8 0.9 35
2017-11-20 20:00:00 14.7 2 Este 5 Nordeste 0 989.5 0.4 40
2017-11-20 19:00:00 16.1 2 Nordeste 4 Nordeste 0 989.1 -0.1 35
2017-11-20 18:00:00 18.7 2 Nordeste 8 Nordeste 0 988.9 -0.8 29
2017-11-20 17:00:00 21.4 3 Nordeste 10 Nordeste 0 989.1 -1.3 25
2017-11-20 16:00:00 22.5 5 Nordeste 11 Nordeste 0 989.2 -2.3 23
2017-11-20 15:00:00 22.4 3 Nordeste 11 Este 0 989.7 -2.3 25
2017-11-20 14:00:00 21.2 5 Este 11 Este 0 990.4 -1.5 26
2017-11-20 13:00:00 18.2 3 Nordeste 12 Nordeste 0 991.5 0 35
2017-11-20 12:00:00 16.2 4 Nordeste 13 Nordeste 0 992 1 41
2017-11-20 11:00:00 13.3 6 Este 13 Nordeste 0 991.9 1.3 52
2017-11-20 10:00:00 8 3 Nordeste 6 Nordeste 0 991.5 1.3 65
2017-11-20 09:00:00 4.9 3 Este 9 Sudeste 0 991 1 69
2017-11-20 08:00:00 3.5 2 Nordeste 4 Nordeste 0 990.6 0.9 76
2017-11-20 07:00:00 3.8 2 Norte 6 Nordeste 0 990.2 0.4 72
2017-11-20 06:00:00 4.5 3 Nordeste 7 Nordeste 0 990 0 71
2017-11-20 05:00:00 5.3 2 Norte 6 Sudeste 0 989.7 -0.1 73
2017-11-20 04:00:00 5.4 3 Sudeste 6 Sudeste 0 989.8 -0.1 65
2017-11-20 03:00:00 5.8 0 Calma 5 Nordeste 0 990 0 68
2017-11-20 02:00:00 6.6 0 Calma 3 Norte 0 989.8 -0.1 65
2017-11-20 01:00:00 7.9 0 Calma 4 Nordeste 0 989.9 0.5 60
2017-11-20 00:00:00 9.1 0 Calma 5 Sudeste 0 990 0.9 53
2017-11-19 23:00:00 9.5 4 Sudeste 7 Sudeste 0 989.9 1.2 46
2017-11-19 22:00:00 10.3 4 Sudeste 8 Sudeste 0 989.4 1.2 42
2017-11-19 21:00:00 11.8 2 Sudoeste 15 Noroeste 0 989.1 1.2 47
2017-11-19 20:00:00 13.6 2 Este 4 Este 0 988.7 0.9 38
2017-11-19 19:00:00 15.8 0 Calma 3 Norte 0 988.2 0.7 35
2017-11-19 18:00:00 18.1 0 Calma 8 Norte 0 987.9 0.2 31
2017-11-19 17:00:00 20.8 3 Norte 11 Norte 0 987.8 -0.7 26
2017-11-19 16:00:00 21.4 5 Norte 12 Norte 0 987.5 -1.6 25
2017-11-19 15:00:00 21.1 5 Norte 11 Nordeste 0 987.7 -1.9 27
2017-11-19 14:00:00 20.5 4 Nordeste 11 Norte 0 988.5 -1 28
2017-11-19 13:00:00 18.7 5 Nordeste 12 Nordeste 0 989.1 -0.4 31
2017-11-19 12:00:00 15.8 5 Norte 12 Nordeste 0 989.6 0.6 44
2017-11-19 11:00:00 13.3 4 Este 10 Nordeste 0 989.5 1.1 52
2017-11-19 10:00:00 8.4 0 Calma 8 Noroeste 0 989.5 1.6 66
2017-11-19 09:00:00 5.3 0 Calma 14 Sudeste 0 989 1.5 77
2017-11-19 08:00:00 4.1 2 Sur 4 Sudeste 0 988.4 1.1 79
2017-11-19 07:00:00 5 0 Calma 6 Este 0 987.9 0.6 75
2017-11-19 06:00:00 4.9 2 Norte 4 Norte 0 987.5 0.3 75
2017-11-19 05:00:00 5 3 Sudoeste 4 Sudoeste 0 987.3 0.2 75
2017-11-19 04:00:00 5.6 2 Nordeste 5 Sur 0 987.3 0 70
2017-11-19 03:00:00 6 2 Sudeste 4 Norte 0 987.2 0.1 72
2017-11-19 02:00:00 7.2 0 Calma 5 Norte 0 987.1 0.1 64
2017-11-19 01:00:00 8.3 0 Calma 6 Sudeste 0 987.3 0.3 62
2017-11-19 00:00:00 9.5 2 Sudeste 10 Sudeste 0 987.1 0.3 54
2017-11-18 23:00:00 10 5 Sudeste 8 Sudeste 0 987 0.6 49
2017-11-18 22:00:00 10.6 2 Sur 5 Sur 0 987 0.9 47
2017-11-18 21:00:00 11.9 0 Calma 6 Norte 0 986.8 1 47
2017-11-18 20:00:00 13.3 2 Este 5 Sur 0 986.4 0.7 39
2017-11-18 19:00:00 15.8 0 Calma 3 Noroeste 0 986.1 0.5 35
2017-11-18 18:00:00 18.7 0 Calma 4 Noroeste 0 985.8 -0.2 31
2017-11-18 17:00:00 21 3 Norte 10 Nordeste 0 985.7 -0.9 27
2017-11-18 16:00:00 21.3 3 Nordeste 9 Norte 0 985.6 -1.8 26
2017-11-18 15:00:00 20.7 4 Nordeste 12 Norte 0 986 -1.9 27
2017-11-18 14:00:00 19.4 4 Nordeste 8 Norte 0 986.6 -1.4 33
2017-11-18 13:00:00 17.1 3 Norte 8 Noroeste 0 987.4 -0.6 43
2017-11-18 12:00:00 13.9 3 Norte 8 Nordeste 0 987.9 0.2 51
2017-11-18 11:00:00 10.6 3 Norte 10 Norte 0 988 0.5 59
2017-11-18 10:00:00 9.2 2 Norte 4 Norte 0 988 0.9 63
2017-11-18 09:00:00 5.2 2 Nordeste 6 Nordeste 0 987.7 0.8 77
2017-11-18 08:00:00 3.6 3 Sudeste 8 Sudeste 0 987.5 0.7 73
2017-11-18 07:00:00 4 0 Calma 4 Norte 0 987.1 0.1 78
2017-11-18 06:00:00 4.3 0 Calma -- -- 0 986.9 0 76
2017-11-18 05:00:00 4.6 0 Calma 4 Sur 0 986.8 -0.2 71
2017-11-18 04:00:00 5.5 3 Sur 5 Sur 0 987 -0.2 65
2017-11-18 03:00:00 6.7 0 Calma 7 Nordeste 0 986.9 -0.4 66
2017-11-18 02:00:00 7.3 2 Nordeste 6 Nordeste 0 987 -0.4 65
2017-11-18 01:00:00 8.7 5 Sudeste 6 Sudeste 0 987.2 0.1 56
2017-11-18 00:00:00 9.3 3 Sudeste 13 Sudeste 0 987.3 0.5 53
2017-11-17 23:00:00 9.9 4 Sudeste 5 Sudeste 0 987.4 0.9 53
2017-11-17 22:00:00 11.2 3 Sudeste 7 Sudeste 0 987.1 0.7 47
2017-11-17 21:00:00 12.6 3 Sur 6 Sudeste 0 986.8 0.7 43
2017-11-17 20:00:00 13.8 3 Sur 8 Sur 0 986.5 0.4 40
2017-11-17 19:00:00 15.7 2 Sur 4 Sudeste 0 986.4 0 38
2017-11-17 18:00:00 18.8 0 Calma 9 Oeste 0 986.1 -0.9 32
2017-11-17 17:00:00 21 3 Noroeste 8 Noroeste 0 986.1 -1.6 28
2017-11-17 16:00:00 21.1 3 Noroeste 8 Noroeste 0 986.4 -2 29
2017-11-17 15:00:00 20.2 3 Nordeste 8 Noroeste 0 987 -2.3 30
2017-11-17 14:00:00 18.9 4 Nordeste 8 Nordeste 0 987.7 -1.6 33
2017-11-17 13:00:00 16.9 3 Nordeste 8 Nordeste 0 988.4 -0.7 42
2017-11-17 12:00:00 14.2 3 Norte 7 Noroeste 0 989.3 0.5 49
2017-11-17 11:00:00 12.1 2 Sudeste 6 Noroeste 0 989.3 1 53
2017-11-17 10:00:00 8.5 0 Calma 5 Sudeste 0 989.1 1.1 67
2017-11-17 09:00:00 5 0 Calma 12 Sudoeste 0 988.8 0.9 80
2017-11-17 08:00:00 3 2 Sudeste 4 Sudeste 0 988.3 0.5 79
2017-11-17 07:00:00 3.3 0 Calma 4 Sur 0 988 0 82
2017-11-17 06:00:00 3.9 0 Calma 4 Oeste 0 987.9 -0.1 79
2017-11-17 05:00:00 4.8 0 Calma 3 Norte 0 987.8 -0.1 77
2017-11-17 04:00:00 5 2 Sudeste 4 Sudeste 0 988 -0.1 69
2017-11-17 03:00:00 5.8 0 Calma 5 Norte 0 988 -0.3 71
2017-11-17 02:00:00 6.6 0 Calma 4 Norte 0 987.9 -0.3 66
2017-11-17 01:00:00 7.5 0 Calma 11 Sudeste 0 988.1 0.2 63
2017-11-17 00:00:00 8.9 5 Sudeste 8 Sudeste 0 988.3 0.5 52
2017-11-16 23:00:00 9.5 3 Sudeste 5 Sudeste 0 988.2 0.8 51
2017-11-16 22:00:00 10.4 3 Sur 5 Sudeste 0 987.9 1 48
2017-11-16 21:00:00 11.2 2 Sudeste 5 Sudeste 0 987.8 1.2 47
2017-11-16 20:00:00 12.5 0 Calma 5 Norte 0 987.4 0.8 45
2017-11-16 19:00:00 14.3 2 Norte 5 Norte 0 986.9 0.2 41
2017-11-16 18:00:00 16.9 4 Norte 8 Norte 0 986.6 -0.5 34
2017-11-16 17:00:00 19.2 3 Norte 10 Nordeste 0 986.6 -1 29
2017-11-16 16:00:00 19.7 3 Norte 11 Nordeste 0 986.7 -1.6 28
2017-11-16 15:00:00 19.5 3 Norte 9 Nordeste 0 987.1 -2 28
2017-11-16 14:00:00 18.3 3 Nordeste 8 Nordeste 0 987.6 -1.8 37
2017-11-16 13:00:00 16.7 3 Nordeste 8 Nordeste 0 988.3 -0.7 42
2017-11-16 12:00:00 14.6 3 Nordeste 10 Sudeste 0 989.1 0.7 51
2017-11-16 11:00:00 10.1 3 Noroeste 8 Oeste 0 989.4 1.7 67
2017-11-16 10:00:00 8 2 Norte 5 Sudeste 0 989 1.6 74
2017-11-16 09:00:00 4.9 4 Sudeste 6 Nordeste 0 988.4 1.2 87
2017-11-16 08:00:00 3.1 0 Calma 5 Nordeste 0 987.7 0.7 89
2017-11-16 07:00:00 4 2 Norte 5 Norte 0 987.4 0.4 91
2017-11-16 06:00:00 4.2 0 Calma 3 Oeste 0 987.2 0.1 90
2017-11-16 05:00:00 4.8 0 Calma 4 Noroeste 0 987 -0.1 89
2017-11-16 04:00:00 5.2 0 Calma 4 Noroeste 0 987 0 85
2017-11-16 03:00:00 5.8 0 Calma 4 Sudeste 0 987.1 0.1 82
2017-11-16 02:00:00 6.2 0 Calma 4 Noroeste 0 987.1 0.1 80
2017-11-16 01:00:00 7.1 0 Calma 4 Sur 0 987 0.1 74
2017-11-16 00:00:00 7.7 0 Calma 4 Este 0 987 0.1 74
2017-11-15 23:00:00 8.8 0 Calma 4 Nordeste 0 987 0.4 70
2017-11-15 22:00:00 10.2 0 Calma 6 Sudeste 0 986.9 0.7 63
2017-11-15 21:00:00 11.2 4 Sudeste 6 Sudeste 0 986.9 1 57
2017-11-15 20:00:00 12.1 4 Sur 6 Sur 0 986.6 0.6 57
2017-11-15 19:00:00 13.9 2 Sudoeste 4 Sudoeste 0 986.2 -0.2 53
2017-11-15 18:00:00 16.5 0 Calma 9 Norte 0 985.9 -0.7 46
2017-11-15 17:00:00 18.1 5 Noroeste 10 Noroeste 0 986 -1.1 40
2017-11-15 16:00:00 18.5 5 Noroeste 13 Noroeste 0 986.4 -1.4 39
2017-11-15 15:00:00 18.2 5 Norte 16 Norte 0 986.6 -2 38
2017-11-15 14:00:00 17.8 5 Nordeste 13 Este 0 987.1 -1.8 38
2017-11-15 13:00:00 16.5 5 Norte 13 Norte 0 987.8 -1.1 38
2017-11-15 12:00:00 14.4 4 Nordeste 12 Nordeste 0 988.6 -0.2 42
2017-11-15 11:00:00 12.7 5 Este 12 Este 0 988.9 0.5 39
2017-11-15 10:00:00 8.6 4 Nordeste 10 Nordeste 0 988.9 1 54
2017-11-15 09:00:00 4.8 2 Nordeste 8 Noroeste 0 988.8 1.3 67
2017-11-15 08:00:00 2.5 2 Norte 7 Nordeste 0 988.4 1.2 78
2017-11-15 07:00:00 3 0 Calma 6 Norte 0 987.9 0.6 76
2017-11-15 06:00:00 4.2 3 Sur 12 Este 0 987.5 0.2 65
2017-11-15 05:00:00 3.7 4 Sudeste 9 Sudeste 0 987.2 0.2 73
2017-11-15 04:00:00 4 0 Calma 5 Sudeste 0 987.3 0.2 65
2017-11-15 03:00:00 4.7 2 Norte 7 Nordeste 0 987.3 0.4 67
2017-11-15 02:00:00 5.4 2 Norte 8 Norte 0 987 0.1 67
2017-11-15 01:00:00 6.2 3 Oeste 6 Oeste 0 987.1 0.6 58
2017-11-15 00:00:00 7.5 5 Sudeste 7 Sudeste 0 986.9 0.6 52
2017-11-14 23:00:00 7.8 3 Sudeste 7 Sudeste 0 986.9 0.7 48
2017-11-14 22:00:00 9.3 2 Norte 8 Sudeste 0 986.5 0.6 47
2017-11-14 21:00:00 9.6 4 Sudeste 6 Sudeste 0 986.3 0.8 45
2017-11-14 20:00:00 11.2 5 Sudeste 7 Sudeste 0 986.2 0.6 42
2017-11-14 19:00:00 12.8 3 Sur 7 Sudeste 0 985.9 0.1 39
2017-11-14 18:00:00 15.6 3 Sur 10 Este 0 985.5 -0.7 31
2017-11-14 17:00:00 16.6 0 Calma 9 Este 0 985.6 -1.6 29
2017-11-14 16:00:00 16.8 3 Este 12 Norte 0 985.8 -2.1 28
2017-11-14 15:00:00 16.3 4 Este 11 Nordeste 0 986.2 -2.5 30
2017-11-14 14:00:00 15.2 5 Norte 13 Nordeste 0 987.2 -2 29
2017-11-14 13:00:00 14.7 4 Nordeste 10 Nordeste 0 987.9 -1.2 32
2017-11-14 12:00:00 13.8 5 Este 14 Sudeste 0 988.7 0.1 33
2017-11-14 11:00:00 12.1 4 Este 11 Sudeste 0 989.2 1.1 39
2017-11-14 10:00:00 8.4 2 Nordeste 6 Este 0 989.1 1.2 58
2017-11-14 09:00:00 5.5 2 Oeste 8 Sudeste 0 988.6 0.7 65
2017-11-14 08:00:00 3.2 2 Sur 5 Sudoeste 0 988.1 0.3 69
2017-11-14 07:00:00 3.6 2 Este 10 Sudoeste 0 987.9 0 71
2017-11-14 06:00:00 4.8 2 Norte 6 Norte 0 987.9 -0.1 69
2017-11-14 05:00:00 5 3 Noroeste 7 Noroeste 0 987.8 -0.2 68
2017-11-14 04:00:00 5.8 3 Nordeste 7 Nordeste 0 987.9 -0.1 67
2017-11-14 03:00:00 6.1 2 Nordeste 7 Sudoeste 0 988 0.1 60
2017-11-14 02:00:00 7.5 3 Norte 8 Sudeste 0 988 0.7 57
2017-11-14 01:00:00 8.2 3 Norte 8 Sudeste 0 988 1.1 56
2017-11-14 00:00:00 10.2 3 Sudeste 14 Sudeste 0 987.9 1.4 44
2017-11-13 23:00:00 11.8 5 Este 21 Este 0 987.3 0.9 38
2017-11-13 22:00:00 12.9 9 Este 22 Este 0 986.9 1.1 36
2017-11-13 21:00:00 13.4 6 Este 23 Este 0 986.5 1 35
2017-11-13 20:00:00 14.8 9 Este 22 Sudeste 0 986.4 1.2 35
2017-11-13 19:00:00 15.3 3 Oeste 6 Noroeste 0 985.8 0.5 53
2017-11-13 18:00:00 18.3 2 Oeste 7 Sudoeste 0 985.5 -0.1 45
2017-11-13 17:00:00 20.3 3 Noroeste 13 Oeste 0 985.2 -1.4 37
2017-11-13 16:00:00 20.1 3 Noroeste 11 Oeste 0 985.3 -2 38
2017-11-13 15:00:00 20.1 3 Norte 12 Oeste 0 985.6 -2.5 38
2017-11-13 14:00:00 18.2 4 Norte 13 Noroeste 0 986.6 -1.6 43
2017-11-13 13:00:00 16.4 4 Noroeste 11 Noroeste 0 987.3 -1 50
2017-11-13 12:00:00 15 3 Nordeste 8 Sudeste 0 988.1 0.3 56
2017-11-13 11:00:00 13 2 Sur 7 Sudoeste 0 988.2 0.8 65
2017-11-13 10:00:00 8.9 3 Norte 8 Norte 0 988.3 1.2 80
2017-11-13 09:00:00 7.2 3 Oeste 10 Sudoeste 0 987.8 0.5 87
2017-11-13 08:00:00 6.3 3 Sudoeste 13 Sur 0 987.4 0.5 87
2017-11-13 07:00:00 6.6 6 Sur 11 Sur 0 987.1 -0.4 88
2017-11-13 06:00:00 6.4 3 Sur 10 Sudoeste 0 987.3 -0.2 85
2017-11-13 05:00:00 7.1 6 Sudoeste 11 Sudoeste 0 986.9 -0.7 82
2017-11-13 04:00:00 7.2 4 Sudoeste 13 Sudoeste 0 987.5 -0.6 81
2017-11-13 03:00:00 8 5 Sudoeste 13 Oeste 0 987.5 -0.8 79
2017-11-13 02:00:00 8.7 5 Sudoeste 14 Sudoeste 0 987.6 -0.9 75
2017-11-13 01:00:00 9.5 7 Sudoeste 14 Sudoeste 0 988.1 -0.2 70
2017-11-13 00:00:00 9.8 4 Oeste 8 Sudoeste 0 988.3 0.1 74
2017-11-12 23:00:00 10.9 4 Sudoeste 10 Sur 0 988.5 0.4 71
2017-11-12 22:00:00 11.2 4 Sudoeste 11 Sudoeste 0 988.3 0.2 69
2017-11-12 21:00:00 12.8 5 Sudoeste 13 Sudoeste 0 988.2 0.2 62
2017-11-12 20:00:00 14 5 Sudoeste 11 Sudoeste 0 988.1 0.2 54
2017-11-12 19:00:00 16 6 Sudoeste 10 Sudoeste 0 988.1 0.1 49
2017-11-12 18:00:00 18.5 3 Oeste 12 Oeste 0 988 -0.4 44
2017-11-12 17:00:00 20.5 5 Oeste 14 Oeste 0 987.9 -1.6 35
2017-11-12 16:00:00 21.4 4 Oeste 14 Noroeste 0 988 -2.3 33
2017-11-12 15:00:00 19.8 4 Oeste 11 Sudoeste 0 988.4 -2.7 38
2017-11-12 14:00:00 19.1 6 Sudoeste 15 Oeste 0 989.5 -2.2 40
2017-11-12 13:00:00 16.1 6 Oeste 17 Noroeste 0 990.3 -1.3 49
2017-11-12 12:00:00 14.5 8 Oeste 16 Oeste 0 991.1 -0.2 56
2017-11-12 11:00:00 11.9 2 Norte 8 Norte 0 991.7 0.4 64
2017-11-12 10:00:00 9.7 0 Calma 4 Sudeste 0 991.6 0.6 73
2017-11-12 09:00:00 6.2 0 Calma 5 Sudeste 0 991.3 0 83
2017-11-12 08:00:00 4 0 Calma 6 Noroeste 0 991.3 0 86
2017-11-12 07:00:00 4.9 2 Sudeste 4 Nordeste 0 991 -0.5 86
2017-11-12 06:00:00 5.2 2 Nordeste 5 Nordeste 0 991.3 -0.5 85
2017-11-12 05:00:00 6.2 2 Sur 10 Sudeste 0 991.3 -0.8 74
2017-11-12 04:00:00 6 5 Sudeste 7 Sudeste 0 991.5 -1.1 76
2017-11-12 03:00:00 6.6 3 Sudeste 6 Norte 0 991.8 -1.1 81
2017-11-12 02:00:00 7.2 3 Norte 9 Noroeste 0 992.1 -1.1 77
2017-11-12 01:00:00 8.7 5 Sudeste 9 Sudeste 0 992.6 -0.6 66
2017-11-12 00:00:00 9 3 Sudeste 8 Sudeste 0 992.9 -0.1 66
2017-11-11 23:00:00 9.4 2 Sudeste 6 Sur 0 993.2 0.1 68
2017-11-11 22:00:00 10.7 3 Este 13 Sudeste 0 993.2 0.3 63
2017-11-11 21:00:00 12 6 Sudeste 10 Sudeste 0 993 0 55
2017-11-11 20:00:00 12.8 5 Sur 11 Sur 0 993.1 0 53
2017-11-11 19:00:00 14.6 0 Calma 3 Nordeste 0 992.9 -0.5 52
2017-11-11 18:00:00 16.7 0 Calma 6 Nordeste 0 993 -1 46
2017-11-11 17:00:00 19.3 3 Nordeste 8 Nordeste 0 993.1 -1.5 37
2017-11-11 16:00:00 19.4 3 Nordeste 8 Noroeste 0 993.4 -1.9 37
2017-11-11 15:00:00 18.6 4 Norte 10 Noroeste 0 994 -2.1 39
2017-11-11 14:00:00 18.4 4 Noroeste 9 Noroeste 0 994.6 -1.8 41
2017-11-11 13:00:00 16.3 4 Nordeste 9 Nordeste 0 995.3 -1.1 46
2017-11-11 12:00:00 15.3 3 Noroeste 8 Noroeste 0 996.1 -0.2 47
2017-11-11 11:00:00 12.6 3 Nordeste 8 Norte 0 996.4 0.7 56
2017-11-11 10:00:00 10.7 2 Nordeste 11 Nordeste 0 996.4 0.8 60
2017-11-11 09:00:00 6.9 4 Nordeste 10 Nordeste 0 996.3 0.4 71
2017-11-11 08:00:00 4.8 2 Norte 9 Sudeste 0 995.7 -0.5 82
2017-11-11 07:00:00 5.9 5 Sur 10 Sudeste 0 995.6 -0.9 70
2017-11-11 06:00:00 5.7 6 Sudeste 10 Sur 0 995.9 -0.5 70
2017-11-11 05:00:00 6.2 4 Sudeste 5 Sudeste 0 996.2 -0.4 76
2017-11-11 04:00:00 6.6 2 Nordeste 6 Sur 0 996.5 -0.3 71
2017-11-11 03:00:00 7.5 4 Sur 7 Sur 0 996.4 -0.2 64
2017-11-11 02:00:00 8.2 2 Sur 10 Sudeste 0 996.6 -0.1 62
2017-11-11 01:00:00 8.5 5 Sur 10 Sudeste 0 996.8 0.3 60
2017-11-11 00:00:00 9 0 Calma 6 Sudeste 0 996.6 0.4 61
2017-11-10 23:00:00 10.1 3 Sudoeste 5 Sudoeste 0 996.7 0.5 54
2017-11-10 22:00:00 11.1 2 Sudeste 6 Sudoeste 0 996.5 0.6 52
2017-11-10 21:00:00 12.2 3 Sur 9 Sudoeste 0 996.2 0.8 49
2017-11-10 20:00:00 13.1 3 Sur 7 Sur 0 996.2 0.6 48
2017-11-10 19:00:00 14.6 3 Sudoeste 9 Sudoeste 0 995.9 0.2 44
2017-11-10 18:00:00 17.3 3 Oeste 13 Oeste 0 995.4 -0.5 35
2017-11-10 17:00:00 18.6 5 Oeste 17 Noroeste 0 995.6 -1.2 31
2017-11-10 16:00:00 18.7 5 Noroeste 14 Noroeste 0 995.7 -2.1 31
2017-11-10 15:00:00 18.6 3 Noroeste 13 Noroeste 0 995.9 -2.2 30
2017-11-10 14:00:00 17.1 5 Oeste 11 Oeste 0 996.8 -1 31
2017-11-10 13:00:00 15.4 3 Norte 10 Norte 0 997.8 0.5 31
2017-11-10 12:00:00 13.6 2 Noroeste 11 Oeste 0 998.1 1.3 39
2017-11-10 11:00:00 10.7 3 Oeste 9 Noroeste 0 997.8 1.1 50
2017-11-10 10:00:00 8.7 3 Nordeste 8 Sudeste 0 997.3 0.6 61
2017-11-10 09:00:00 5 4 Sur 9 Sudeste 0 996.8 0.6 67
2017-11-10 08:00:00 2.9 4 Sur 8 Sur 0 996.7 1.2 75
2017-11-10 07:00:00 3 2 Oeste 8 Noroeste 0 996.7 0.8 74
2017-11-10 06:00:00 3.9 0 Calma 12 Sudeste 0 996.2 0.1 70
2017-11-10 05:00:00 4 4 Sur 13 Sudeste 0 995.5 -0.5 69
2017-11-10 04:00:00 4.4 3 Sudoeste 8 Sudoeste 0 995.9 0.2 70
2017-11-10 03:00:00 5.2 0 Calma 7 Oeste 0 996.1 0.3 69
2017-11-10 02:00:00 5.6 2 Sudoeste 12 Oeste 0 996 0.7 64
2017-11-10 01:00:00 7.3 0 Calma 15 Nordeste 0 995.7 0.4 60
2017-11-10 00:00:00 8.4 2 Nordeste 15 Este 0 995.8 1.2 54
2017-11-09 23:00:00 8.7 3 Este 8 Nordeste 0 995.3 1.1 56
2017-11-09 22:00:00 9.6 4 Nordeste 13 Nordeste 0 995.3 2 51
2017-11-09 21:00:00 9.6 2 Nordeste 10 Norte 0 994.6 1.8 52
2017-11-09 20:00:00 11.3 5 Norte 14 Norte 0 994.2 1.5 44
2017-11-09 19:00:00 13.2 6 Norte 15 Norte 0 993.3 0.6 34
2017-11-09 18:00:00 14.7 3 Norte 10 Noroeste 0 992.8 -0.2 31
2017-11-09 17:00:00 16.2 4 Norte 16 Norte 0 992.7 -0.7 29
2017-11-09 16:00:00 16.5 5 Norte 20 Nordeste 0 992.7 -1.3 27
2017-11-09 15:00:00 16.7 8 Nordeste 24 Nordeste 0 993 -1.8 28
2017-11-09 14:00:00 15.9 8 Nordeste 26 Este 0 993.4 -1.8 30
2017-11-09 13:00:00 15.2 9 Nordeste 31 Este 0 994 -1.1 31
2017-11-09 12:00:00 14.5 10 Nordeste 27 Nordeste 0 994.8 0.4 32
2017-11-09 11:00:00 12.5 4 Nordeste 12 Este 0 995.2 1.5 42
2017-11-09 10:00:00 9.6 3 Nordeste 9 Noroeste 0 995.1 2 56
2017-11-09 09:00:00 6.8 4 Norte 15 Sudeste 0 994.4 1.7 64
2017-11-09 08:00:00 5.3 2 Este 6 Nordeste 0 993.7 1.3 75
2017-11-09 07:00:00 5.3 3 Oeste 6 Oeste 0 993.1 0.9 72
2017-11-09 06:00:00 6.1 0 Calma 9 Nordeste 0 992.7 0.7 67
2017-11-09 05:00:00 7.7 3 Nordeste 8 Este 0 992.4 0.6 61
2017-11-09 04:00:00 8.6 5 Este 17 Nordeste 0 992.2 0.6 55
2017-11-09 03:00:00 10.4 9 Nordeste 18 Este 0 992 0.6 49
2017-11-09 02:00:00 9.3 3 Nordeste 8 Nordeste 0 991.8 0.4 55
2017-11-09 01:00:00 11.1 0 Calma 14 Este 0 991.6 0.6 48
2017-11-09 00:00:00 13.3 6 Este 17 Nordeste 0 991.4 1.1 38
2017-11-08 23:00:00 13.5 6 Este 22 Este 0 991.4 1.3 38
2017-11-08 22:00:00 12.1 5 Nordeste 13 Nordeste 0 991 1.5 47
2017-11-08 21:00:00 11.8 3 Norte 12 Norte 0 990.3 1.3 48
2017-11-08 20:00:00 12.7 5 Norte 15 Norte 0 990.1 1.3 48
2017-11-08 19:00:00 14.4 5 Norte 17 Norte 0 989.5 0.6 51
2017-11-08 18:00:00 17 8 Norte 18 Norte 0 989 -0.3 41
2017-11-08 17:00:00 18.8 5 Norte 18 Oeste 0 988.8 -0.9 36
2017-11-08 16:00:00 19.1 6 Norte 16 Norte 0 988.9 -1.5 36
2017-11-08 15:00:00 18.5 4 Norte 12 Norte 0 989.3 -1.8 42
2017-11-08 14:00:00 17.8 5 Nordeste 14 Nordeste 0 989.7 -1.4 49
2017-11-08 13:00:00 16.1 4 Norte 10 Norte 0 990.4 -0.5 54
2017-11-08 12:00:00 14.5 2 Noroeste 9 Nordeste 0 991.1 0.6 57
2017-11-08 11:00:00 11.8 4 Nordeste 13 Norte 0 991.1 1.2 71
2017-11-08 10:00:00 10 3 Norte 10 Noroeste 0 990.9 1.5 75
2017-11-08 09:00:00 8 0 Calma 5 Nordeste 0 990.5 1.4 85
2017-11-08 08:00:00 6.5 2 Noroeste 7 Sudoeste 0 989.9 1.2 88
2017-11-08 07:00:00 6.8 3 Sudoeste 7 Sur 0 989.4 0.9 86
2017-11-08 06:00:00 7.2 2 Sudoeste 9 Sudoeste 0 989.1 0.5 83
2017-11-08 05:00:00 7.8 5 Sudoeste 15 Sudoeste 0 988.7 0.2 80
2017-11-08 04:00:00 8.2 7 Sudoeste 13 Sudoeste 0 988.5 -0.1 77
2017-11-08 03:00:00 8.7 7 Sudoeste 13 Sudoeste 0 988.6 -0.1 74
2017-11-08 02:00:00 9.3 4 Sudoeste 12 Sudoeste 0 988.5 -0.1 71
2017-11-08 01:00:00 9.8 7 Sudoeste 14 Sudoeste 0 988.6 0.4 67
2017-11-08 00:00:00 10.1 6 Sudoeste 9 Sur 0 988.7 0.8 69
2017-11-07 23:00:00 10.6 4 Sur 8 Sudoeste 0 988.6 0.8 67
2017-11-07 22:00:00 11.6 6 Sudoeste 13 Oeste 0 988.2 0.8 61
2017-11-07 21:00:00 12.4 5 Sudoeste 11 Sudoeste 0 987.9 0.8 59
2017-11-07 20:00:00 13.8 6 Sudoeste 14 Oeste 0 987.8 0.8 54
2017-11-07 19:00:00 16 8 Sudoeste 15 Sudoeste 0 987.4 0 47
2017-11-07 18:00:00 19.5 3 Sudoeste 12 Sudoeste 0 987.1 -0.5 38
2017-11-07 17:00:00 20.3 4 Oeste 15 Oeste 0 987 -1.2 33
2017-11-07 16:00:00 19.8 6 Oeste 18 Oeste 0 987.4 -1.3 35
2017-11-07 15:00:00 19.5 5 Oeste 15 Noroeste 0 987.6 -1.6 37
2017-11-07 14:00:00 17.7 5 Oeste 16 Oeste 0 988.2 -1.5 40
2017-11-07 13:00:00 16.3 5 Sudoeste 13 Sudoeste 0 988.7 -0.8 40
2017-11-07 12:00:00 15.3 2 Noroeste 9 Noroeste 0 989.2 -0.1 49
2017-11-07 11:00:00 12.6 3 Norte 9 Este 0 989.7 1.1 62
2017-11-07 10:00:00 9.4 4 Noroeste 8 Noroeste 0 989.5 1.2 74
2017-11-07 09:00:00 8.3 3 Sudeste 10 Sudeste 0 989.3 0.9 78
2017-11-07 08:00:00 5.5 4 Oeste 7 Sudoeste 0 988.6 0.6 81
2017-11-07 07:00:00 5.6 5 Sudeste 9 Sudoeste 0 988.3 0.1 84
2017-11-07 06:00:00 6.4 0 Calma 12 Nordeste 0 988.4 -0.1 83
2017-11-07 05:00:00 7 2 Norte 7 Nordeste 0 988 -0.6 84
2017-11-07 04:00:00 7 2 Noroeste 6 Noroeste 0 988.2 -0.4 83
2017-11-07 03:00:00 7.4 0 Calma 5 Nordeste 0 988.5 -0.2 82
2017-11-07 02:00:00 7.6 3 Sudoeste 9 Sudoeste 0 988.6 -0.2 80
2017-11-07 01:00:00 8.4 3 Nordeste 11 Sudoeste 0 988.6 0.2 74
2017-11-07 00:00:00 9.3 3 Sudeste 7 Sudeste 0 988.7 0.4 71
2017-11-06 23:00:00 10.3 3 Noroeste 9 Nordeste 0 988.8 0.4 67
2017-11-06 22:00:00 11.2 5 Norte 9 Norte 0 988.4 0.1 66
2017-11-06 21:00:00 12 3 Noroeste 8 Noroeste 0 988.3 0.1 62
2017-11-06 20:00:00 13.1 2 Noroeste 8 Norte 0 988.4 0 57
2017-11-06 19:00:00 14.5 2 Noroeste 4 Noroeste 0 988.3 -0.4 49
2017-11-06 18:00:00 17.1 2 Norte 13 Nordeste 0 988.2 -1.1 38
2017-11-06 17:00:00 18.1 5 Nordeste 18 Norte 0 988.4 -1.9 36
2017-11-06 16:00:00 18.9 4 Nordeste 18 Nordeste 0 988.7 -2.6 32
2017-11-06 15:00:00 19 8 Este 19 Sudeste 0 989.3 -3 34
2017-11-06 14:00:00 18.6 6 Este 23 Este 0 990.3 -2.1 33
2017-11-06 13:00:00 17.6 6 Este 15 Este 0 991.3 -1.4 41
2017-11-06 12:00:00 16.4 5 Sudeste 14 Este 0 992.3 -0.2 46
2017-11-06 11:00:00 14.6 3 Este 14 Este 0 992.4 0.5 50
2017-11-06 10:00:00 12.2 3 Este 8 Norte 0 992.7 1.2 59
2017-11-06 09:00:00 9.3 2 Nordeste 6 Nordeste 0 992.5 0.8 76
2017-11-06 08:00:00 7.6 2 Nordeste 8 Nordeste 0 991.9 0.2 83
2017-11-06 07:00:00 8.5 4 Nordeste 11 Nordeste 0 991.5 -0.2 80
2017-11-06 06:00:00 8.9 4 Nordeste 9 Nordeste 0 991.7 -0.1 80
2017-11-06 05:00:00 9 3 Nordeste 6 Nordeste 0 991.7 -0.2 81
2017-11-06 04:00:00 9.1 2 Norte 5 Nordeste 0 991.7 0 84
2017-11-06 03:00:00 9.7 2 Norte 6 Nordeste 0 991.8 0.2 85
2017-11-06 02:00:00 9.9 0 Calma 8 Norte 0 991.9 0.5 82
2017-11-06 01:00:00 11 4 Sudeste 13 Este 0 991.7 0.7 78
2017-11-06 00:00:00 11.1 5 Sudeste 9 Sur 0 991.6 0.9 71
2017-11-05 23:00:00 11.4 0 Calma 11 Norte 0 991.4 0.9 68
2017-11-05 22:00:00 12.5 4 Norte 10 Norte 0 991 1 59
2017-11-05 21:00:00 12.9 2 Noroeste 12 Norte 0 990.7 1.2 62
2017-11-05 20:00:00 14.3 4 Noroeste 13 Noroeste 0 990.5 1.1 57
2017-11-05 19:00:00 15.5 4 Noroeste 12 Noroeste 0 990 0.5 57
2017-11-05 18:00:00 18.3 4 Noroeste 12 Noroeste 0 989.5 -0.3 57
2017-11-05 17:00:00 19.7 4 Oeste 8 Oeste 0 989.4 -0.9 51
2017-11-05 16:00:00 19.1 3 Norte 8 Norte 0 989.5 -1 55
2017-11-05 15:00:00 18.3 4 Noroeste 15 Norte 0 989.8 -1 59
2017-11-05 14:00:00 18.1 3 Norte 12 Norte 0 990.3 -0.3 62
2017-11-05 13:00:00 16.1 5 Noroeste 14 Noroeste 0 990.5 0.2 66
2017-11-05 12:00:00 15.6 6 Noroeste 11 Oeste 0 990.8 1.1 68
2017-11-05 11:00:00 15.6 6 Sudoeste 12 Oeste 0 990.6 1.9 70
2017-11-05 10:00:00 13.4 8 Sudoeste 15 Sudoeste 0 990.3 1.9 81
2017-11-05 09:00:00 11.4 6 Sudoeste 13 Sudoeste 0.2 989.7 1.7 94
2017-11-05 08:00:00 10 6 Sudoeste 16 Sudoeste 0 988.7 1.3 94
2017-11-05 07:00:00 10.5 7 Sudoeste 17 Sudoeste 0 988.4 1.3 93
2017-11-05 06:00:00 10.8 7 Sudoeste 17 Oeste 0 988 1.2 93
2017-11-05 05:00:00 11 8 Sudoeste 18 Oeste 0 987.4 0.7 92
2017-11-05 04:00:00 11.7 9 Sudoeste 17 Sudoeste 0 987.1 0.6 93
2017-11-05 03:00:00 12.1 6 Sudoeste 19 Oeste 0 986.8 1 92
2017-11-05 02:00:00 12.6 8 Sudoeste 19 Sudoeste 0 986.7 1.1 92
2017-11-05 01:00:00 12.9 8 Oeste 18 Oeste 0 986.5 1.6 91
2017-11-05 00:00:00 13.5 8 Oeste 18 Oeste 0 985.8 1.6 89
2017-11-04 23:00:00 14.3 9 Oeste 21 Oeste 0 985.6 2.1 88
2017-11-04 22:00:00 14.6 8 Oeste 18 Oeste 0 984.9 2.1 90
2017-11-04 21:00:00 14.5 8 Oeste 16 Oeste 0 984.2 2.4 89
2017-11-04 20:00:00 14.6 5 Sudoeste 16 Oeste 0 983.5 2.3 87
2017-11-04 19:00:00 15.4 6 Oeste 21 Sudoeste 0 982.8 2.3 86
2017-11-04 18:00:00 16.2 9 Oeste 26 Noroeste 0 981.8 1.5 82
2017-11-04 17:00:00 16.6 9 Oeste 29 Oeste 0 981.2 0.9 84
2017-11-04 16:00:00 15.8 12 Oeste 36 Oeste 0.2 980.5 0.2 87
2017-11-04 15:00:00 15.1 14 Oeste 41 Oeste 1.6 980.3 -0.5 87
2017-11-04 14:00:00 17 13 Oeste 29 Noroeste 0.2 980.3 -0.2 75
2017-11-04 13:00:00 17.7 12 Oeste 32 Oeste 0 980.3 0 68
2017-11-04 12:00:00 17.7 18 Sudoeste 39 Sudoeste 0 980.8 1.2 66
2017-11-04 11:00:00 15.9 15 Sudoeste 30 Sudoeste 0 980.5 1.5 79
2017-11-04 10:00:00 15.8 10 Sudoeste 21 Sudoeste 0 980.3 2.1 83
2017-11-04 09:00:00 14.4 8 Sudoeste 26 Sur 0 979.6 1.2 87
2017-11-04 08:00:00 14.8 16 Sur 32 Sur 0 979 0.7 81
2017-11-04 07:00:00 14.6 13 Sur 27 Sudoeste 0 978.2 -0.2 81
2017-11-04 06:00:00 14.6 9 Sur 21 Sur 0 978.4 -0.6 81
2017-11-04 05:00:00 14.4 9 Sudeste 20 Sudeste 0 978.3 -1.1 85
2017-11-04 04:00:00 14.6 9 Sudeste 22 Este 0 978.4 -1.4 85
2017-11-04 03:00:00 14.8 10 Sudeste 19 Sudeste 0.2 979 -0.8 85
2017-11-04 02:00:00 14.8 6 Sudoeste 22 Sudoeste 1.4 979.4 -0.5 88
2017-11-04 01:00:00 15.3 10 Sur 32 Sur 0 979.8 -0.1 81
2017-11-04 00:00:00 15.3 9 Sur 23 Sur 0 979.8 -0.2 81
2017-11-03 23:00:00 14.4 4 Sur 13 Sudeste 0 979.9 -0.6 89
2017-11-03 22:00:00 15 7 Sudeste 15 Sudeste 0 979.9 1 86
2017-11-03 21:00:00 15 6 Sur 27 Oeste 3 980 1.2 91
2017-11-03 20:00:00 15.9 11 Oeste 28 Sur 0.2 980.5 1.6 84
2017-11-03 19:00:00 19.4 6 Sur 22 Sudeste 0 978.9 -0.4 53
2017-11-03 18:00:00 20.2 7 Sur 22 Sur 0 978.8 -1 46
2017-11-03 17:00:00 21.3 5 Sudeste 10 Este 0 978.9 -1.7 43
2017-11-03 16:00:00 22.9 8 Sur 19 Sur 0 979.3 -2.2 35
2017-11-03 15:00:00 22.4 4 Noroeste 17 Sudoeste 0 979.8 -2.6 39
2017-11-03 14:00:00 23.1 7 Sudoeste 18 Sudoeste 0 980.6 -2.1 40
2017-11-03 13:00:00 22 8 Sudoeste 18 Sudoeste 0 981.5 -1.1 47
2017-11-03 12:00:00 20.7 6 Sudoeste 16 Oeste 0 982.4 0 54
2017-11-03 11:00:00 19 4 Sur 14 Sudeste 0 982.7 0.7 66
2017-11-03 10:00:00 16.8 6 Sudeste 12 Sudeste 0 982.6 0.8 85
2017-11-03 09:00:00 14.7 2 Este 11 Este 0 982.4 0.6 91
2017-11-03 08:00:00 14.3 5 Sudeste 8 Sudeste 0 982 0.1 90
2017-11-03 07:00:00 14.2 5 Este 12 Este 0 981.8 -0.3 90
2017-11-03 06:00:00 14.1 4 Este 10 Este 0 981.8 -0.3 90
2017-11-03 05:00:00 14.4 3 Nordeste 7 Nordeste 0.2 981.9 -0.8 90
2017-11-03 04:00:00 14.5 3 Norte 12 Noroeste 0 982.1 -0.7 90
2017-11-03 03:00:00 15.7 3 Oeste 9 Noroeste 0.2 982.1 -0.8 89
2017-11-03 02:00:00 16.7 3 Oeste 20 Oeste 0 982.7 -0.4 78
2017-11-03 01:00:00 17.8 7 Sudoeste 12 Sudoeste 0 982.8 -0.3 64
2017-11-03 00:00:00 18 4 Sur 12 Sur 0 982.9 -0.3 62
2017-11-02 23:00:00 18.6 4 Sur 18 Sudeste 0 983.1 0 60
2017-11-02 22:00:00 19 6 Sur 20 Sudeste 0 983.1 0.3 59
2017-11-02 21:00:00 18.7 7 Sudeste 13 Sudeste 0 983.2 0.4 56
2017-11-02 20:00:00 19.1 3 Sur 17 Sur 0 983.1 0 55
2017-11-02 19:00:00 20 6 Sur 21 Sur 0 982.8 -0.7 51
2017-11-02 18:00:00 21.1 6 Sur 23 Sur 0 982.8 -0.9 47
2017-11-02 17:00:00 21.8 11 Sur 25 Sudeste 0 983.1 -1.5 44
2017-11-02 16:00:00 21.7 11 Sur 29 Sur 0 983.5 -1.5 45
2017-11-02 15:00:00 21.4 11 Sur 36 Sur 0 983.7 -2 48
2017-11-02 14:00:00 20.5 20 Sudoeste 35 Sudoeste 0 984.6 -1.4 51
2017-11-02 13:00:00 20.7 14 Sudoeste 29 Sur 0 985 -1.1 51
2017-11-02 12:00:00 20.1 6 Sur 20 Sudeste 0 985.7 -0.2 53
2017-11-02 11:00:00 18.9 6 Sudeste 24 Sudeste 0 986 0.4 58
2017-11-02 10:00:00 18.3 6 Sur 19 Sudeste 0 986.1 1 61
2017-11-02 09:00:00 16.6 7 Sudeste 16 Sudeste 0 985.9 0.6 69
2017-11-02 08:00:00 16 4 Este 15 Sudeste 0 985.6 0.3 71
2017-11-02 07:00:00 16 8 Sudeste 23 Sudeste 0 985.1 -0.3 72
2017-11-02 06:00:00 16.2 10 Sudeste 19 Sur 0 985.3 -0.2 71
2017-11-02 05:00:00 16.2 5 Sur 15 Sur 0 985.3 -0.3 71
2017-11-02 04:00:00 16 6 Sur 20 Sudeste 0 985.4 -0.5 69
2017-11-02 03:00:00 16.6 9 Sudeste 16 Sudeste 0 985.5 -0.4 64
2017-11-02 02:00:00 17.6 7 Sudeste 14 Sur 0 985.6 -0.1 59
2017-11-02 01:00:00 18.2 5 Sur 17 Sur 0 985.9 0.5 55
2017-11-02 00:00:00 17.8 4 Sur 15 Sudeste 0 985.9 0.6 55
2017-11-01 23:00:00 17.7 5 Sudeste 16 Sudeste 0 985.7 0.4 50
2017-11-01 22:00:00 18.5 5 Sudeste 11 Sudeste 0 985.4 0.3 46
2017-11-01 21:00:00 18.5 4 Sudeste 11 Sudeste 0 985.3 0.5 44
2017-11-01 20:00:00 19.1 4 Sudoeste 14 Sur 0 985.3 0.8 43
2017-11-01 19:00:00 21.1 8 Sur 13 Sur 0 985.1 0.2 35
2017-11-01 18:00:00 23.3 9 Sudoeste 30 Sur 0 984.8 -0.2 31
2017-11-01 17:00:00 25 11 Sur 30 Sudoeste 0 984.5 -1.4 28
2017-11-01 16:00:00 25.7 11 Sur 27 Sudeste 0 984.9 -2.1 26
2017-11-01 15:00:00 25.4 6 Sur 28 Sur 0 985 -3 26
2017-11-01 14:00:00 24.9 5 Sudoeste 19 Sur 0 985.9 -2.5 29
2017-11-01 13:00:00 24.1 8 Este 21 Sudeste 0 987 -1.6 37
2017-11-01 12:00:00 22.2 10 Sudeste 28 Este 0 988 -0.4 44
2017-11-01 11:00:00 20.2 11 Este 24 Este 0 988.4 0.6 51
2017-11-01 10:00:00 16.8 5 Nordeste 14 Este 0 988.6 1.3 63
2017-11-01 09:00:00 14.3 5 Este 17 Este 0 988.4 1.3 70
2017-11-01 08:00:00 11.8 0 Calma 9 Este 0 987.8 0.7 80
2017-11-01 07:00:00 12.6 4 Este 9 Este 0 987.3 0.1 79
2017-11-01 06:00:00 11.7 3 Nordeste 8 Norte 0 987.1 -0.2 76
2017-11-01 05:00:00 12.1 3 Nordeste 5 Nordeste 0 987.1 -0.1 75
2017-11-01 04:00:00 11.8 2 Nordeste 6 Norte 0 987.2 -0.1 72
2017-11-01 03:00:00 12.1 2 Norte 6 Norte 0 987.3 0.2 71
2017-11-01 02:00:00 13.7 2 Nordeste 6 Este 0 987.2 0.2 67
2017-11-01 01:00:00 13.5 4 Nordeste 11 Norte 0 987.3 0.5 65
2017-11-01 00:00:00 14.9 3 Norte 11 Sudeste 0 987.1 0.6 56
2017-10-31 23:00:00 16.1 5 Sudeste 12 Sudeste 0 987 0.8 45
2017-10-31 22:00:00 17.4 6 Sudeste 11 Sudeste 0 986.8 1.2 40
2017-10-31 21:00:00 17.8 5 Sudeste 12 Sudeste 0 986.5 1 39
2017-10-31 20:00:00 19 4 Sur 12 Nordeste 0 986.2 0.9 38
2017-10-31 19:00:00 20.5 5 Nordeste 10 Nordeste 0 985.6 0.4 33
2017-10-31 18:00:00 22.6 4 Nordeste 21 Nordeste 0 985.5 0.2 32
2017-10-31 17:00:00 24.4 5 Nordeste 21 Nordeste 0 985.3 -0.5 28
2017-10-31 16:00:00 25.9 6 Este 19 Sudeste 0 985.2 -1.3 25
2017-10-31 15:00:00 25.9 5 Sudeste 19 Sudeste 0 985.3 -1.7 26
2017-10-31 14:00:00 25.1 6 Este 19 Este 0 985.8 -1.6 28
2017-10-31 13:00:00 24.1 6 Este 17 Este 0 986.5 -0.8 30
2017-10-31 12:00:00 22.7 8 Este 18 Este 0 987 0.4 33
2017-10-31 11:00:00 19.8 5 Nordeste 15 Este 0 987.4 1.6 44
2017-10-31 10:00:00 17 3 Nordeste 10 Sudeste 0 987.3 2 51
2017-10-31 09:00:00 15 5 Sudeste 17 Este 0 986.6 1.6 51
2017-10-31 08:00:00 11.3 4 Este 9 Este 0 985.8 1.1 68
2017-10-31 07:00:00 10.6 5 Nordeste 9 Nordeste 0 985.3 0.7 68
2017-10-31 06:00:00 10.5 0 Calma 11 Sudeste 0 985 0.4 69
2017-10-31 05:00:00 10.9 4 Sudeste 8 Sudeste 0 984.7 0.2 61
2017-10-31 04:00:00 10.9 0 Calma 6 Sudeste 0 984.6 -0.2 67
2017-10-31 03:00:00 11.4 2 Sudoeste 5 Sudoeste 0 984.6 0 68
2017-10-31 02:00:00 12.4 3 Este 5 Este 0 984.5 0 60
2017-10-31 01:00:00 13.5 3 Sudeste 8 Sudeste 0 984.8 0.6 56
2017-10-31 00:00:00 13.4 2 Norte 6 Nordeste 0 984.6 0.5 54
2017-10-30 23:00:00 14.2 2 Sur 4 Nordeste 0 984.5 0.8 48
2017-10-30 22:00:00 14.9 2 Nordeste 4 Nordeste 0 984.2 1 46
2017-10-30 21:00:00 16.7 0 Calma 6 Norte 0 984.1 1.2 44
2017-10-30 20:00:00 18.1 2 Nordeste 12 Norte 0 983.7 0.9 38
2017-10-30 19:00:00 20 0 Calma 4 Nordeste 0 983.2 0.4 30
2017-10-30 18:00:00 23.4 2 Nordeste 13 Nordeste 0 982.9 -0.3 25
2017-10-30 17:00:00 24.7 4 Nordeste 14 Norte 0 982.8 -0.8 21
2017-10-30 16:00:00 25.3 5 Nordeste 15 Norte 0 982.8 -1.7 20
2017-10-30 15:00:00 25.3 5 Nordeste 19 Nordeste 0 983.2 -2 22
2017-10-30 14:00:00 24.2 8 Nordeste 23 Este 0 983.6 -2.1 24
2017-10-30 13:00:00 24 8 Este 21 Este 0 984.5 -1.3 26
2017-10-30 12:00:00 21.4 8 Nordeste 18 Nordeste 0 985.2 -0.2 34
2017-10-30 11:00:00 19.2 6 Este 17 Este 0 985.7 0.7 42
2017-10-30 10:00:00 15.1 3 Norte 8 Nordeste 0 985.8 1.2 57
2017-10-30 09:00:00 12.7 0 Calma 8 Este 0 985.4 0.8 62
2017-10-30 08:00:00 9.3 2 Este 6 Nordeste 0 985 0.5 72
2017-10-30 07:00:00 9.2 0 Calma 6 Nordeste 0 984.6 0.1 72
2017-10-30 06:00:00 10.3 4 Nordeste 9 Nordeste 0 984.6 -0.1 70
2017-10-30 05:00:00 9.8 2 Norte 11 Sudeste 0 984.5 -0.4 72
2017-10-30 04:00:00 11.6 8 Sudeste 11 Sur 0 984.5 -0.9 50
2017-10-30 03:00:00 11.9 4 Este 12 Este 0 984.7 -0.8 54
2017-10-30 02:00:00 11.7 0 Calma 5 Sudeste 0 984.9 -0.9 57
2017-10-30 01:00:00 12.8 0 Calma 5 Nordeste 0 985.4 -0.7 58
2017-10-30 00:00:00 13.8 3 Nordeste 5 Sur 0 985.5 -0.6 45
2017-10-29 23:00:00 14.4 2 Sur 5 Sudeste 0 985.8 -0.2 44
2017-10-29 22:00:00 15.6 3 Sudeste 7 Sudoeste 0 986.1 0.3 44
2017-10-29 21:00:00 16.9 2 Nordeste 6 Nordeste 0 986.1 0.3 38
2017-10-29 20:00:00 18.4 0 Calma 10 Sudeste 0 986 -0.1 32
2017-10-29 19:00:00 20.9 3 Oeste 6 Oeste 0 985.8 -0.8 27
2017-10-29 18:00:00 23.9 3 Noroeste 12 Noroeste 0 985.8 -1.3 23
2017-10-29 17:00:00 25.8 4 Norte 14 Norte 0 986.1 -1.9 18
2017-10-29 16:00:00 26.3 5 Norte 13 Norte 0 986.6 -2.4 19
2017-10-29 15:00:00 26.7 3 Norte 13 Este 0 987.1 -2.9 20
2017-10-29 14:00:00 25.9 5 Nordeste 12 Este 0 988 -2.1 22
2017-10-29 13:00:00 24.9 4 Este 17 Nordeste 0 989 -1.4 24
2017-10-29 12:00:00 22.2 3 Nordeste 10 Nordeste 0 990 -0.1 38
2017-10-29 11:00:00 20.6 5 Este 10 Nordeste 0 990.1 0.5 39
2017-10-29 10:00:00 17.7 4 Nordeste 10 Nordeste 0 990.4 0.8 49
2017-10-29 09:00:00 13.6 0 Calma 8 Nordeste 0 990.1 0.5 62
2017-10-29 08:00:00 10.7 2 Norte 6 Nordeste 0 989.6 0.3 71
2017-10-29 07:00:00 10.9 0 Calma 4 Este 0 989.6 0.4 68
2017-10-29 06:00:00 11.5 0 Calma 7 Sudeste 0 989.6 0 65
2017-10-29 05:00:00 12 3 Nordeste 5 Nordeste 0 989.3 -0.4 67
2017-10-29 04:00:00 12 0 Calma 5 Norte 0 989.2 -0.7 70
2017-10-29 03:00:00 12.5 0 Calma 6 Sudoeste 0 989.6 -0.3 60
2017-10-29 02:00:00 13.6 2 Sudeste 4 Sudeste 0 989.7 -0.1 58
2017-10-29 01:00:00 16.2 2 Nordeste 7 Nordeste 0 989.9 0.4 43
2017-10-29 00:00:00 16.4 3 Norte 8 Norte 0 989.8 0.8 46
2017-10-28 23:00:00 17 2 Sur 5 Sudeste 0 989.5 0.7 43
2017-10-28 22:00:00 18.3 3 Sudeste 5 Este 0 989.5 0.9 42
2017-10-28 21:00:00 20.4 0 Calma 4 Noroeste 0 989 0.6 38
2017-10-28 20:00:00 23 0 Calma 7 Nordeste 0 988.8 0.1 30
2017-10-28 19:00:00 25.9 0 Calma 11 Este 0 988.6 -0.6 25
2017-10-28 18:00:00 28 4 Nordeste 18 Nordeste 0 988.4 -1.5 20
2017-10-28 17:00:00 28.2 5 Nordeste 19 Nordeste 0 988.7 -2.2 21
2017-10-28 16:00:00 27.8 5 Nordeste 17 Nordeste 0 989.2 -2.4 20
2017-10-28 15:00:00 27 4 Nordeste 17 Nordeste 0 989.9 -2.1 25
2017-10-28 14:00:00 26.1 6 Nordeste 18 Este 0 990.9 -1.4 24
2017-10-28 13:00:00 24.5 5 Nordeste 20 Nordeste 0 991.6 -0.7 29
2017-10-28 12:00:00 21.6 5 Este 13 Nordeste 0 992 0.2 36
2017-10-28 11:00:00 18 3 Norte 10 Este 0 992.3 0.9 53
2017-10-28 10:00:00 14.7 3 Este 9 Este 0 992.3 1.1 62
2017-10-28 09:00:00 11.8 2 Noroeste 6 Norte 0 991.8 0.8 72
2017-10-28 08:00:00 12.1 0 Calma 5 Nordeste 0 991.4 0.3 71
2017-10-28 07:00:00 13.4 2 Este 9 Nordeste 0 991.2 -0.3 65
2017-10-28 06:00:00 13.2 2 Norte 6 Nordeste 0 991 -0.8 67
2017-10-28 05:00:00 13.3 2 Sur 6 Norte 0 991.1 -1 66
2017-10-28 04:00:00 14.5 2 Noroeste 7 Norte 0 991.5 -1 63
2017-10-28 03:00:00 15.5 3 Norte 5 Nordeste 0 991.8 -0.9 60
2017-10-28 02:00:00 16.4 2 Norte 6 Nordeste 0 992.1 -0.5 54
2017-10-28 01:00:00 16.5 4 Sudeste 6 Sudeste 0 992.5 -0.1 49
2017-10-28 00:00:00 17.4 0 Calma 4 Sudeste 0 992.7 0.3 49
2017-10-27 23:00:00 19.1 2 Sudeste 6 Sudeste 0 992.6 0.4 41
2017-10-27 22:00:00 20.4 0 Calma 5 Sur 0 992.6 0.4 39
2017-10-27 21:00:00 22.5 3 Sur 4 Sur 0 992.4 0 30
2017-10-27 20:00:00 25.2 2 Oeste 3 Oeste 0 992.2 -0.4 26
2017-10-27 19:00:00 28.3 0 Calma 10 Norte 0 992.2 -0.9 24
2017-10-27 18:00:00 29.9 4 Norte 19 Norte 0 992.4 -1.3 20
2017-10-27 17:00:00 30.5 4 Nordeste 13 Norte 0 992.6 -1.9 20
2017-10-27 16:00:00 29.7 4 Norte 14 Norte 0 993.1 -1.9 23
2017-10-27 15:00:00 28.8 5 Norte 15 Nordeste 0 993.7 -1.7 26
2017-10-27 14:00:00 27.7 5 Nordeste 13 Este 0 994.5 -0.9 24
2017-10-27 13:00:00 23.8 4 Norte 12 Nordeste 0 995 0.1 40
2017-10-27 12:00:00 20.6 4 Norte 10 Nordeste 0 995.4 0.9 49
2017-10-27 11:00:00 18.3 4 Este 11 Nordeste 0 995.4 1.3 53
2017-10-27 10:00:00 15.1 5 Este 11 Sudeste 0 994.9 0.9 62
2017-10-27 09:00:00 11.7 3 Nordeste 8 Nordeste 0 994.5 0.9 74
2017-10-27 08:00:00 12.1 3 Nordeste 5 Nordeste 0 994.1 0.4 71
2017-10-27 07:00:00 12.9 3 Nordeste 7 Norte 0 994 0.2 65
2017-10-27 06:00:00 13.3 2 Nordeste 6 Nordeste 0 993.6 -0.4 66
2017-10-27 05:00:00 12.9 0 Calma 6 Sudoeste 0 993.7 -0.5 68
2017-10-27 04:00:00 13.4 0 Calma 6 Sudoeste 0 993.8 -0.5 62
2017-10-27 03:00:00 13.9 2 Oeste 6 Norte 0 994 -0.2 62
2017-10-27 02:00:00 15 3 Norte 6 Norte 0 994.2 0.2 60
2017-10-27 01:00:00 16.5 3 Este 8 Sudeste 0 994.3 0.6 51
2017-10-27 00:00:00 16.9 3 Sudeste 8 Sudeste 0 994.2 0.8 50
2017-10-26 23:00:00 17.2 0 Calma 5 Noroeste 0 994 1.1 54
2017-10-26 22:00:00 18.7 4 Noroeste 8 Noroeste 0 993.7 1.2 45
2017-10-26 21:00:00 20.9 2 Sudeste 8 Noroeste 0 993.4 1.1 42
2017-10-26 20:00:00 23.1 0 Calma 4 Norte 0 992.9 0.4 29
2017-10-26 19:00:00 26.3 0 Calma 7 Nordeste 0 992.5 -0.2 24
2017-10-26 18:00:00 28.7 3 Nordeste 10 Nordeste 0 992.3 -0.8 20
2017-10-26 17:00:00 29.3 2 Norte 9 Este 0 992.5 -1.3 17
2017-10-26 16:00:00 28.4 5 Nordeste 15 Nordeste 0 992.7 -1.8 20
2017-10-26 15:00:00 27.3 5 Nordeste 14 Nordeste 0 993.1 -1.5 25
2017-10-26 14:00:00 25.6 4 Nordeste 10 Nordeste 0 993.8 -0.6 28
2017-10-26 13:00:00 23 4 Norte 9 Nordeste 0 994.5 0.5 38
2017-10-26 12:00:00 20.1 3 Nordeste 9 Nordeste 0 994.6 1.1 45
2017-10-26 11:00:00 16.7 3 Nordeste 8 Este 0 994.4 1.2 55
2017-10-26 10:00:00 14.1 0 Calma 5 Nordeste 0 994 1.1 64
2017-10-26 09:00:00 12.2 3 Nordeste 6 Nordeste 0 993.5 0.9 66
2017-10-26 08:00:00 11.3 0 Calma 5 Norte 0 993.2 0.7 73
2017-10-26 07:00:00 11.6 2 Sur 4 Sudeste 0 992.9 0.3 70
2017-10-26 06:00:00 12 0 Calma 5 Norte 0 992.6 0.2 69
2017-10-26 05:00:00 13.6 4 Sudeste 8 Sudeste 0 992.5 0 55
2017-10-26 04:00:00 13.7 3 Sudeste 8 Sudeste 0 992.6 0.2 53
2017-10-26 03:00:00 14.5 4 Sudeste 8 Sudeste 0 992.4 0.1 57
2017-10-26 02:00:00 15.6 2 Nordeste 5 Nordeste 0 992.5 0.9 50
2017-10-26 01:00:00 15.8 3 Nordeste 8 Noroeste 0 992.4 1.4 55
2017-10-26 00:00:00 17.3 0 Calma 9 Sudeste 0 992.3 1.9 43
2017-10-25 23:00:00 19.1 5 Sudeste 10 Sudeste 0 991.6 1.7 33
2017-10-25 22:00:00 19.9 4 Sur 9 Sur 0 991 1.6 33
2017-10-25 21:00:00 21 5 Sur 8 Sur 0 990.4 1.2 34
2017-10-25 20:00:00 23.8 2 Sudoeste 11 Sur 0 989.9 0.8 29
2017-10-25 19:00:00 28.1 3 Sur 15 Sudeste 0 989.4 0.3 17
2017-10-25 18:00:00 29.8 5 Sur 16 Sudeste 0 989.2 -0.6 14
2017-10-25 17:00:00 30.3 6 Sur 20 Sudoeste 0 989.1 -1.5 13
2017-10-25 16:00:00 30.1 10 Sudeste 20 Sudeste 0 989.1 -2.2 13
2017-10-25 15:00:00 29.4 8 Sur 24 Sudeste 0 989.8 -1.6 13
2017-10-25 14:00:00 27.3 11 Sudeste 22 Sudeste 0 990.6 -0.8 23
2017-10-25 13:00:00 23.1 4 Nordeste 14 Nordeste 0 991.3 0.3 42
2017-10-25 12:00:00 20.6 5 Nordeste 14 Nordeste 0 991.4 1 48
2017-10-25 11:00:00 18.6 4 Este 15 Sudeste 0 991.4 1 49
2017-10-25 10:00:00 15.1 4 Este 12 Sudeste 0 991 0.6 60
2017-10-25 09:00:00 12.1 3 Este 8 Este 0 990.4 0.5 76
2017-10-25 08:00:00 11.2 0 Calma 6 Noroeste 0 990.4 0.3 82
2017-10-25 07:00:00 11.4 3 Norte 8 Noroeste 0 990.4 0 80
2017-10-25 06:00:00 12 0 Calma 14 Este 0 989.9 -0.4 77
2017-10-25 05:00:00 14.2 6 Este 12 Este 0 990.1 -0.1 61
2017-10-25 04:00:00 13 3 Este 6 Este 0 990.4 0.1 73
2017-10-25 03:00:00 14.1 2 Norte 6 Nordeste 0 990.3 0 68
2017-10-25 02:00:00 16.1 3 Nordeste 6 Nordeste 0 990.2 0.5 57
2017-10-25 01:00:00 15.8 3 Nordeste 9 Noroeste 0 990.3 0.8 59
2017-10-25 00:00:00 18.4 2 Este 13 Sudeste 0 990.3 1.1 45